sensor_id;sensor_type;location;lat;lon;timestamp;P1;durP1;ratioP1;P2;durP2;ratioP2
16634;SDS011;8431;52.458;9.998;2022-08-11T00:01:54;2.50;;;2.40;;
16634;SDS011;8431;52.458;9.998;2022-08-11T00:04:23;3.00;;;2.25;;
16634;SDS011;8431;52.458;9.998;2022-08-11T00:06:51;2.45;;;2.25;;
16634;SDS011;8431;52.458;9.998;2022-08-11T00:09:20;2.80;;;2.60;;
16634;SDS011;8431;52.458;9.998;2022-08-11T00:11:56;2.58;;;2.38;;
16634;SDS011;8431;52.458;9.998;2022-08-11T00:14:25;2.47;;;2.38;;
16634;SDS011;8431;52.458;9.998;2022-08-11T00:16:56;3.38;;;2.78;;
16634;SDS011;8431;52.458;9.998;2022-08-11T00:19:25;2.42;;;2.22;;
16634;SDS011;8431;52.458;9.998;2022-08-11T00:21:56;3.38;;;2.45;;
16634;SDS011;8431;52.458;9.998;2022-08-11T00:24:24;3.65;;;2.58;;
16634;SDS011;8431;52.458;9.998;2022-08-11T00:26:58;2.78;;;2.58;;
16634;SDS011;8431;52.458;9.998;2022-08-11T00:29:26;2.83;;;2.63;;
16634;SDS011;8431;52.458;9.998;2022-08-11T00:31:54;3.67;;;2.58;;
16634;SDS011;8431;52.458;9.998;2022-08-11T00:34:26;2.40;;;2.30;;
16634;SDS011;8431;52.458;9.998;2022-08-11T00:36:56;5.22;;;2.50;;
16634;SDS011;8431;52.458;9.998;2022-08-11T00:39:27;2.60;;;2.50;;
16634;SDS011;8431;52.458;9.998;2022-08-11T00:41:59;3.00;;;2.40;;
16634;SDS011;8431;52.458;9.998;2022-08-11T00:44:39;2.83;;;2.63;;
16634;SDS011;8431;52.458;9.998;2022-08-11T00:47:20;3.38;;;2.33;;
16634;SDS011;8431;52.458;9.998;2022-08-11T00:50:03;3.42;;;3.13;;
16634;SDS011;8431;52.458;9.998;2022-08-11T00:52:47;3.28;;;2.80;;
16634;SDS011;8431;52.458;9.998;2022-08-11T00:55:32;3.30;;;2.63;;
16634;SDS011;8431;52.458;9.998;2022-08-11T01:01:20;3.22;;;2.58;;
16634;SDS011;8431;52.458;9.998;2022-08-11T01:10:13;2.58;;;2.40;;
16634;SDS011;8431;52.458;9.998;2022-08-11T01:13:13;2.75;;;2.55;;
16634;SDS011;8431;52.458;9.998;2022-08-11T01:16:19;3.42;;;3.00;;
16634;SDS011;8431;52.458;9.998;2022-08-11T01:22:20;3.42;;;2.70;;
16634;SDS011;8431;52.458;9.998;2022-08-11T01:37:56;3.17;;;2.88;;
16634;SDS011;8431;52.458;9.998;2022-08-11T01:40:50;3.83;;;3.40;;
16634;SDS011;8431;52.458;9.998;2022-08-11T01:46:55;3.00;;;2.80;;
16634;SDS011;8431;52.458;9.998;2022-08-11T01:50:01;2.92;;;2.63;;
16634;SDS011;8431;52.458;9.998;2022-08-11T01:52:40;2.70;;;2.55;;
16634;SDS011;8431;52.458;9.998;2022-08-11T01:55:20;4.00;;;3.20;;
16634;SDS011;8431;52.458;9.998;2022-08-11T01:57:55;3.63;;;2.80;;
16634;SDS011;8431;52.458;9.998;2022-08-11T02:00:32;4.90;;;3.08;;
16634;SDS011;8431;52.458;9.998;2022-08-11T02:03:13;2.55;;;2.45;;
16634;SDS011;8431;52.458;9.998;2022-08-11T02:08:54;6.10;;;2.45;;
16634;SDS011;8431;52.458;9.998;2022-08-11T02:11:31;2.45;;;2.35;;
16634;SDS011;8431;52.458;9.998;2022-08-11T02:14:02;3.00;;;2.80;;
16634;SDS011;8431;52.458;9.998;2022-08-11T02:16:41;2.92;;;2.72;;
16634;SDS011;8431;52.458;9.998;2022-08-11T02:19:23;3.20;;;3.00;;
16634;SDS011;8431;52.458;9.998;2022-08-11T02:22:18;2.75;;;2.50;;
16634;SDS011;8431;52.458;9.998;2022-08-11T02:25:17;3.08;;;2.88;;
16634;SDS011;8431;52.458;9.998;2022-08-11T02:27:50;4.65;;;2.85;;
16634;SDS011;8431;52.458;9.998;2022-08-11T02:30:24;3.00;;;2.80;;
16634;SDS011;8431;52.458;9.998;2022-08-11T02:32:54;3.58;;;3.03;;
16634;SDS011;8431;52.458;9.998;2022-08-11T02:35:51;3.45;;;3.15;;
16634;SDS011;8431;52.458;9.998;2022-08-11T02:38:28;3.22;;;2.90;;
16634;SDS011;8431;52.458;9.998;2022-08-11T02:41:00;3.50;;;2.75;;
16634;SDS011;8431;52.458;9.998;2022-08-11T02:44:00;3.13;;;2.83;;
16634;SDS011;8431;52.458;9.998;2022-08-11T02:46:48;3.47;;;3.17;;
16634;SDS011;8431;52.458;9.998;2022-08-11T02:49:32;2.95;;;2.63;;
16634;SDS011;8431;52.458;9.998;2022-08-11T02:52:28;3.05;;;2.78;;
16634;SDS011;8431;52.458;9.998;2022-08-11T02:55:09;4.45;;;2.80;;
16634;SDS011;8431;52.458;9.998;2022-08-11T02:57:46;3.95;;;3.20;;
16634;SDS011;8431;52.458;9.998;2022-08-11T03:00:18;3.47;;;3.10;;
16634;SDS011;8431;52.458;9.998;2022-08-11T03:05:48;3.75;;;3.45;;
16634;SDS011;8431;52.458;9.998;2022-08-11T03:08:35;3.65;;;3.15;;
16634;SDS011;8431;52.458;9.998;2022-08-11T03:11:19;5.15;;;3.22;;
16634;SDS011;8431;52.458;9.998;2022-08-11T03:14:14;3.45;;;3.00;;
16634;SDS011;8431;52.458;9.998;2022-08-11T03:17:08;3.15;;;2.95;;
16634;SDS011;8431;52.458;9.998;2022-08-11T03:19:45;3.22;;;3.03;;
16634;SDS011;8431;52.458;9.998;2022-08-11T03:22:24;3.10;;;2.90;;
16634;SDS011;8431;52.458;9.998;2022-08-11T03:24:59;4.80;;;3.03;;
16634;SDS011;8431;52.458;9.998;2022-08-11T03:27:35;3.90;;;3.10;;
16634;SDS011;8431;52.458;9.998;2022-08-11T03:30:12;3.35;;;3.10;;
16634;SDS011;8431;52.458;9.998;2022-08-11T03:32:47;3.70;;;3.40;;
16634;SDS011;8431;52.458;9.998;2022-08-11T03:35:44;4.75;;;3.50;;
16634;SDS011;8431;52.458;9.998;2022-08-11T03:38:19;3.60;;;2.88;;
16634;SDS011;8431;52.458;9.998;2022-08-11T03:40:58;3.22;;;2.95;;
16634;SDS011;8431;52.458;9.998;2022-08-11T03:44:00;4.72;;;3.40;;
16634;SDS011;8431;52.458;9.998;2022-08-11T03:46:40;4.35;;;3.70;;
16634;SDS011;8431;52.458;9.998;2022-08-11T03:49:24;3.38;;;3.17;;
16634;SDS011;8431;52.458;9.998;2022-08-11T03:52:02;4.30;;;3.47;;
16634;SDS011;8431;52.458;9.998;2022-08-11T03:54:41;3.75;;;3.25;;
16634;SDS011;8431;52.458;9.998;2022-08-11T04:00:42;3.28;;;3.08;;
16634;SDS011;8431;52.458;9.998;2022-08-11T04:03:43;3.78;;;3.47;;
16634;SDS011;8431;52.458;9.998;2022-08-11T04:09:49;5.18;;;3.78;;
16634;SDS011;8431;52.458;9.998;2022-08-11T04:15:49;3.13;;;2.92;;
16634;SDS011;8431;52.458;9.998;2022-08-11T04:21:20;3.95;;;3.40;;
16634;SDS011;8431;52.458;9.998;2022-08-11T04:24:26;3.47;;;3.25;;
16634;SDS011;8431;52.458;9.998;2022-08-11T04:27:25;3.65;;;3.35;;
16634;SDS011;8431;52.458;9.998;2022-08-11T04:30:03;4.85;;;4.45;;
16634;SDS011;8431;52.458;9.998;2022-08-11T04:32:41;4.65;;;4.00;;
16634;SDS011;8431;52.458;9.998;2022-08-11T04:35:38;3.92;;;3.63;;
16634;SDS011;8431;52.458;9.998;2022-08-11T04:38:23;6.07;;;4.28;;
16634;SDS011;8431;52.458;9.998;2022-08-11T04:41:19;4.53;;;3.88;;
16634;SDS011;8431;52.458;9.998;2022-08-11T04:47:09;4.85;;;3.70;;
16634;SDS011;8431;52.458;9.998;2022-08-11T04:50:16;4.35;;;3.63;;
16634;SDS011;8431;52.458;9.998;2022-08-11T04:53:25;4.43;;;3.50;;
16634;SDS011;8431;52.458;9.998;2022-08-11T04:56:17;4.68;;;4.25;;
16634;SDS011;8431;52.458;9.998;2022-08-11T05:12:21;3.70;;;3.42;;
16634;SDS011;8431;52.458;9.998;2022-08-11T05:14:55;4.50;;;4.10;;
16634;SDS011;8431;52.458;9.998;2022-08-11T05:17:41;5.10;;;3.97;;
16634;SDS011;8431;52.458;9.998;2022-08-11T05:20:28;6.40;;;3.58;;
16634;SDS011;8431;52.458;9.998;2022-08-11T05:23:15;4.50;;;4.10;;
16634;SDS011;8431;52.458;9.998;2022-08-11T05:26:03;5.63;;;3.75;;
16634;SDS011;8431;52.458;9.998;2022-08-11T05:28:52;6.40;;;4.32;;
16634;SDS011;8431;52.458;9.998;2022-08-11T05:31:40;9.23;;;4.18;;
16634;SDS011;8431;52.458;9.998;2022-08-11T05:34:31;9.27;;;3.92;;
16634;SDS011;8431;52.458;9.998;2022-08-11T05:37:19;7.35;;;3.70;;
16634;SDS011;8431;52.458;9.998;2022-08-11T05:39:52;3.50;;;3.10;;
16634;SDS011;8431;52.458;9.998;2022-08-11T05:42:41;3.67;;;3.38;;
16634;SDS011;8431;52.458;9.998;2022-08-11T05:45:31;4.05;;;3.75;;
16634;SDS011;8431;52.458;9.998;2022-08-11T05:48:17;4.32;;;3.95;;
16634;SDS011;8431;52.458;9.998;2022-08-11T05:51:03;3.35;;;3.13;;
16634;SDS011;8431;52.458;9.998;2022-08-11T05:53:48;8.48;;;3.28;;
16634;SDS011;8431;52.458;9.998;2022-08-11T05:56:41;5.32;;;3.88;;
16634;SDS011;8431;52.458;9.998;2022-08-11T05:59:12;4.22;;;3.65;;
16634;SDS011;8431;52.458;9.998;2022-08-11T06:01:42;3.60;;;3.30;;
16634;SDS011;8431;52.458;9.998;2022-08-11T06:04:14;5.68;;;3.50;;
16634;SDS011;8431;52.458;9.998;2022-08-11T06:06:45;7.47;;;3.67;;
16634;SDS011;8431;52.458;9.998;2022-08-11T06:09:19;4.20;;;3.50;;
16634;SDS011;8431;52.458;9.998;2022-08-11T06:11:52;4.68;;;2.97;;
16634;SDS011;8431;52.458;9.998;2022-08-11T06:14:21;3.50;;;3.05;;
16634;SDS011;8431;52.458;9.998;2022-08-11T06:16:51;3.35;;;3.10;;
16634;SDS011;8431;52.458;9.998;2022-08-11T06:19:29;3.33;;;3.00;;
16634;SDS011;8431;52.458;9.998;2022-08-11T06:21:58;5.40;;;3.15;;
16634;SDS011;8431;52.458;9.998;2022-08-11T06:24:28;10.68;;;3.17;;
16634;SDS011;8431;52.458;9.998;2022-08-11T06:26:58;3.80;;;2.65;;
16634;SDS011;8431;52.458;9.998;2022-08-11T06:29:26;3.83;;;3.25;;
16634;SDS011;8431;52.458;9.998;2022-08-11T06:31:55;3.75;;;3.45;;
16634;SDS011;8431;52.458;9.998;2022-08-11T06:34:32;3.92;;;3.00;;
16634;SDS011;8431;52.458;9.998;2022-08-11T06:37:17;3.72;;;2.95;;
16634;SDS011;8431;52.458;9.998;2022-08-11T06:39:51;5.35;;;3.40;;
16634;SDS011;8431;52.458;9.998;2022-08-11T06:42:35;3.05;;;2.85;;
16634;SDS011;8431;52.458;9.998;2022-08-11T06:45:11;3.38;;;2.90;;
16634;SDS011;8431;52.458;9.998;2022-08-11T06:47:48;5.40;;;2.83;;
16634;SDS011;8431;52.458;9.998;2022-08-11T06:50:16;3.15;;;2.90;;
16634;SDS011;8431;52.458;9.998;2022-08-11T06:53:03;3.53;;;3.22;;
16634;SDS011;8431;52.458;9.998;2022-08-11T06:55:34;3.30;;;3.10;;
16634;SDS011;8431;52.458;9.998;2022-08-11T06:58:24;5.03;;;3.03;;
16634;SDS011;8431;52.458;9.998;2022-08-11T07:01:13;6.80;;;3.13;;
16634;SDS011;8431;52.458;9.998;2022-08-11T07:03:45;3.45;;;2.70;;
16634;SDS011;8431;52.458;9.998;2022-08-11T07:06:23;5.18;;;3.10;;
16634;SDS011;8431;52.458;9.998;2022-08-11T07:09:13;4.25;;;3.08;;
16634;SDS011;8431;52.458;9.998;2022-08-11T07:15:24;3.35;;;3.05;;
16634;SDS011;8431;52.458;9.998;2022-08-11T07:18:11;4.80;;;2.75;;
16634;SDS011;8431;52.458;9.998;2022-08-11T07:21:08;3.47;;;2.90;;
16634;SDS011;8431;52.458;9.998;2022-08-11T07:23:55;2.90;;;2.70;;
16634;SDS011;8431;52.458;9.998;2022-08-11T07:26:44;2.88;;;2.67;;
16634;SDS011;8431;52.458;9.998;2022-08-11T07:29:32;4.82;;;2.97;;
16634;SDS011;8431;52.458;9.998;2022-08-11T07:32:06;4.88;;;2.97;;
16634;SDS011;8431;52.458;9.998;2022-08-11T07:34:49;5.65;;;3.25;;
16634;SDS011;8431;52.458;9.998;2022-08-11T07:37:18;4.75;;;3.17;;
16634;SDS011;8431;52.458;9.998;2022-08-11T07:39:48;5.10;;;3.08;;
16634;SDS011;8431;52.458;9.998;2022-08-11T07:42:18;3.17;;;2.80;;
16634;SDS011;8431;52.458;9.998;2022-08-11T07:44:52;3.55;;;2.83;;
16634;SDS011;8431;52.458;9.998;2022-08-11T07:47:40;5.65;;;3.40;;
16634;SDS011;8431;52.458;9.998;2022-08-11T07:50:26;6.15;;;2.95;;
16634;SDS011;8431;52.458;9.998;2022-08-11T07:53:12;6.38;;;3.35;;
16634;SDS011;8431;52.458;9.998;2022-08-11T07:55:41;4.65;;;2.80;;
16634;SDS011;8431;52.458;9.998;2022-08-11T07:58:08;8.30;;;3.53;;
16634;SDS011;8431;52.458;9.998;2022-08-11T08:00:55;2.95;;;2.75;;
16634;SDS011;8431;52.458;9.998;2022-08-11T08:03:42;2.97;;;2.80;;
16634;SDS011;8431;52.458;9.998;2022-08-11T08:06:28;4.70;;;2.88;;
16634;SDS011;8431;52.458;9.998;2022-08-11T08:09:15;3.10;;;2.90;;
16634;SDS011;8431;52.458;9.998;2022-08-11T08:12:02;5.50;;;3.03;;
16634;SDS011;8431;52.458;9.998;2022-08-11T08:14:48;3.05;;;2.72;;
16634;SDS011;8431;52.458;9.998;2022-08-11T08:17:33;5.95;;;2.90;;
16634;SDS011;8431;52.458;9.998;2022-08-11T08:20:24;6.05;;;3.17;;
16634;SDS011;8431;52.458;9.998;2022-08-11T08:22:54;2.50;;;2.40;;
16634;SDS011;8431;52.458;9.998;2022-08-11T08:25:23;5.32;;;2.80;;
16634;SDS011;8431;52.458;9.998;2022-08-11T08:27:52;5.25;;;2.60;;
16634;SDS011;8431;52.458;9.998;2022-08-11T08:30:20;3.38;;;2.53;;
16634;SDS011;8431;52.458;9.998;2022-08-11T08:33:07;4.75;;;2.85;;
16634;SDS011;8431;52.458;9.998;2022-08-11T08:35:36;2.63;;;2.53;;
16634;SDS011;8431;52.458;9.998;2022-08-11T08:38:03;6.28;;;2.70;;
16634;SDS011;8431;52.458;9.998;2022-08-11T08:40:30;3.80;;;2.65;;
16634;SDS011;8431;52.458;9.998;2022-08-11T08:42:58;3.28;;;2.97;;
16634;SDS011;8431;52.458;9.998;2022-08-11T08:45:33;8.60;;;2.78;;
16634;SDS011;8431;52.458;9.998;2022-08-11T08:48:02;4.30;;;2.80;;
16634;SDS011;8431;52.458;9.998;2022-08-11T08:50:32;2.90;;;2.70;;
16634;SDS011;8431;52.458;9.998;2022-08-11T08:53:21;3.05;;;2.45;;
16634;SDS011;8431;52.458;9.998;2022-08-11T08:55:53;12.73;;;2.80;;
16634;SDS011;8431;52.458;9.998;2022-08-11T08:58:23;3.45;;;2.88;;
16634;SDS011;8431;52.458;9.998;2022-08-11T09:00:52;7.05;;;3.05;;
16634;SDS011;8431;52.458;9.998;2022-08-11T09:03:20;2.67;;;2.30;;
16634;SDS011;8431;52.458;9.998;2022-08-11T09:05:49;4.18;;;2.72;;
16634;SDS011;8431;52.458;9.998;2022-08-11T09:08:21;4.93;;;2.67;;
16634;SDS011;8431;52.458;9.998;2022-08-11T09:10:49;6.22;;;2.90;;
16634;SDS011;8431;52.458;9.998;2022-08-11T09:13:31;4.10;;;2.40;;
16634;SDS011;8431;52.458;9.998;2022-08-11T09:15:59;4.00;;;2.58;;
16634;SDS011;8431;52.458;9.998;2022-08-11T09:18:27;4.20;;;2.75;;
16634;SDS011;8431;52.458;9.998;2022-08-11T09:20:55;3.40;;;2.85;;
16634;SDS011;8431;52.458;9.998;2022-08-11T09:23:24;3.67;;;2.67;;
16634;SDS011;8431;52.458;9.998;2022-08-11T09:26:09;2.42;;;2.30;;
16634;SDS011;8431;52.458;9.998;2022-08-11T09:28:54;5.57;;;2.30;;
16634;SDS011;8431;52.458;9.998;2022-08-11T09:31:22;7.68;;;2.40;;
16634;SDS011;8431;52.458;9.998;2022-08-11T09:33:51;3.88;;;2.60;;
16634;SDS011;8431;52.458;9.998;2022-08-11T09:36:20;2.92;;;1.95;;
16634;SDS011;8431;52.458;9.998;2022-08-11T09:39:06;3.13;;;2.20;;
16634;SDS011;8431;52.458;9.998;2022-08-11T09:41:53;2.05;;;1.95;;
16634;SDS011;8431;52.458;9.998;2022-08-11T09:44:20;8.45;;;2.35;;
16634;SDS011;8431;52.458;9.998;2022-08-11T09:47:05;2.97;;;2.22;;
16634;SDS011;8431;52.458;9.998;2022-08-11T09:49:40;5.60;;;2.53;;
16634;SDS011;8431;52.458;9.998;2022-08-11T09:52:08;3.25;;;2.10;;
16634;SDS011;8431;52.458;9.998;2022-08-11T09:54:39;2.72;;;2.53;;
16634;SDS011;8431;52.458;9.998;2022-08-11T09:57:07;2.65;;;2.00;;
16634;SDS011;8431;52.458;9.998;2022-08-11T09:59:52;2.03;;;1.92;;
16634;SDS011;8431;52.458;9.998;2022-08-11T10:02:22;3.70;;;2.08;;
16634;SDS011;8431;52.458;9.998;2022-08-11T10:04:52;3.75;;;2.15;;
16634;SDS011;8431;52.458;9.998;2022-08-11T10:07:43;4.35;;;1.95;;
16634;SDS011;8431;52.458;9.998;2022-08-11T10:10:16;4.80;;;2.05;;
16634;SDS011;8431;52.458;9.998;2022-08-11T10:12:47;2.58;;;1.80;;
16634;SDS011;8431;52.458;9.998;2022-08-11T10:15:18;3.85;;;1.80;;
16634;SDS011;8431;52.458;9.998;2022-08-11T10:18:03;4.50;;;1.98;;
16634;SDS011;8431;52.458;9.998;2022-08-11T10:20:50;3.15;;;2.10;;
16634;SDS011;8431;52.458;9.998;2022-08-11T10:23:20;2.83;;;2.15;;
16634;SDS011;8431;52.458;9.998;2022-08-11T10:26:07;4.80;;;2.20;;
16634;SDS011;8431;52.458;9.998;2022-08-11T10:28:52;8.10;;;2.17;;
16634;SDS011;8431;52.458;9.998;2022-08-11T10:31:20;2.35;;;2.15;;
16634;SDS011;8431;52.458;9.998;2022-08-11T10:34:06;2.40;;;2.20;;
16634;SDS011;8431;52.458;9.998;2022-08-11T10:36:35;4.30;;;1.95;;
16634;SDS011;8431;52.458;9.998;2022-08-11T10:39:09;3.30;;;2.33;;
16634;SDS011;8431;52.458;9.998;2022-08-11T10:41:42;4.93;;;2.22;;
16634;SDS011;8431;52.458;9.998;2022-08-11T10:44:28;5.78;;;2.00;;
16634;SDS011;8431;52.458;9.998;2022-08-11T10:46:58;2.90;;;1.88;;
16634;SDS011;8431;52.458;9.998;2022-08-11T10:49:43;2.40;;;2.03;;
16634;SDS011;8431;52.458;9.998;2022-08-11T10:52:31;4.75;;;2.22;;
16634;SDS011;8431;52.458;9.998;2022-08-11T10:55:15;2.00;;;1.90;;
16634;SDS011;8431;52.458;9.998;2022-08-11T10:58:01;3.25;;;2.13;;
16634;SDS011;8431;52.458;9.998;2022-08-11T11:00:45;3.78;;;2.00;;
16634;SDS011;8431;52.458;9.998;2022-08-11T11:03:14;2.30;;;2.10;;
16634;SDS011;8431;52.458;9.998;2022-08-11T11:05:42;2.25;;;1.60;;
16634;SDS011;8431;52.458;9.998;2022-08-11T11:08:11;2.40;;;2.00;;
16634;SDS011;8431;52.458;9.998;2022-08-11T11:10:55;2.88;;;2.20;;
16634;SDS011;8431;52.458;9.998;2022-08-11T11:13:24;2.08;;;1.98;;
16634;SDS011;8431;52.458;9.998;2022-08-11T11:16:09;4.07;;;2.13;;
16634;SDS011;8431;52.458;9.998;2022-08-11T11:19:04;2.40;;;1.83;;
16634;SDS011;8431;52.458;9.998;2022-08-11T11:21:33;2.15;;;2.05;;
16634;SDS011;8431;52.458;9.998;2022-08-11T11:24:08;2.60;;;2.15;;
16634;SDS011;8431;52.458;9.998;2022-08-11T11:26:42;2.88;;;1.95;;
16634;SDS011;8431;52.458;9.998;2022-08-11T11:32:16;2.63;;;2.10;;
16634;SDS011;8431;52.458;9.998;2022-08-11T11:37:48;2.80;;;2.20;;
16634;SDS011;8431;52.458;9.998;2022-08-11T11:40:17;2.22;;;2.08;;
16634;SDS011;8431;52.458;9.998;2022-08-11T11:42:47;2.58;;;2.13;;
16634;SDS011;8431;52.458;9.998;2022-08-11T11:45:17;2.10;;;2.00;;
16634;SDS011;8431;52.458;9.998;2022-08-11T11:47:45;2.17;;;2.05;;
16634;SDS011;8431;52.458;9.998;2022-08-11T11:50:17;2.15;;;1.90;;
16634;SDS011;8431;52.458;9.998;2022-08-11T11:52:49;3.08;;;2.10;;
16634;SDS011;8431;52.458;9.998;2022-08-11T11:55:19;3.92;;;2.47;;
16634;SDS011;8431;52.458;9.998;2022-08-11T11:57:48;2.08;;;1.95;;
16634;SDS011;8431;52.458;9.998;2022-08-11T12:00:36;2.38;;;2.17;;
16634;SDS011;8431;52.458;9.998;2022-08-11T12:03:21;6.43;;;2.40;;
16634;SDS011;8431;52.458;9.998;2022-08-11T12:05:50;4.00;;;2.10;;
16634;SDS011;8431;52.458;9.998;2022-08-11T12:08:18;2.90;;;2.17;;
16634;SDS011;8431;52.458;9.998;2022-08-11T12:10:47;3.25;;;2.45;;
16634;SDS011;8431;52.458;9.998;2022-08-11T12:13:36;2.30;;;2.20;;
16634;SDS011;8431;52.458;9.998;2022-08-11T12:16:08;4.43;;;1.92;;
16634;SDS011;8431;52.458;9.998;2022-08-11T12:18:36;3.33;;;2.30;;
16634;SDS011;8431;52.458;9.998;2022-08-11T12:21:06;2.03;;;1.92;;
16634;SDS011;8431;52.458;9.998;2022-08-11T12:23:34;2.28;;;2.10;;
16634;SDS011;8431;52.458;9.998;2022-08-11T12:26:20;54.33;;;5.13;;
16634;SDS011;8431;52.458;9.998;2022-08-11T12:29:07;4.63;;;2.28;;
16634;SDS011;8431;52.458;9.998;2022-08-11T12:31:38;2.95;;;2.10;;
16634;SDS011;8431;52.458;9.998;2022-08-11T12:34:07;2.30;;;2.10;;
16634;SDS011;8431;52.458;9.998;2022-08-11T12:36:36;3.30;;;2.08;;
16634;SDS011;8431;52.458;9.998;2022-08-11T12:39:05;4.70;;;1.92;;
16634;SDS011;8431;52.458;9.998;2022-08-11T12:41:35;5.25;;;1.90;;
16634;SDS011;8431;52.458;9.998;2022-08-11T12:44:22;4.35;;;1.98;;
16634;SDS011;8431;52.458;9.998;2022-08-11T12:47:10;2.75;;;1.90;;
16634;SDS011;8431;52.458;9.998;2022-08-11T12:49:43;2.75;;;1.77;;
16634;SDS011;8431;52.458;9.998;2022-08-11T12:52:33;3.58;;;1.70;;
16634;SDS011;8431;52.458;9.998;2022-08-11T12:55:08;2.08;;;1.90;;
16634;SDS011;8431;52.458;9.998;2022-08-11T12:57:38;2.92;;;1.50;;
16634;SDS011;8431;52.458;9.998;2022-08-11T13:00:26;3.33;;;1.80;;
16634;SDS011;8431;52.458;9.998;2022-08-11T13:03:17;2.67;;;2.08;;
16634;SDS011;8431;52.458;9.998;2022-08-11T13:06:04;2.10;;;2.00;;
16634;SDS011;8431;52.458;9.998;2022-08-11T13:08:33;1.77;;;1.67;;
16634;SDS011;8431;52.458;9.998;2022-08-11T13:11:03;2.13;;;2.00;;
16634;SDS011;8431;52.458;9.998;2022-08-11T13:13:48;2.03;;;1.92;;
16634;SDS011;8431;52.458;9.998;2022-08-11T13:16:20;14.90;;;2.58;;
16634;SDS011;8431;52.458;9.998;2022-08-11T13:18:50;3.17;;;2.08;;
16634;SDS011;8431;52.458;9.998;2022-08-11T13:21:18;3.33;;;1.90;;
16634;SDS011;8431;52.458;9.998;2022-08-11T13:23:46;3.40;;;2.00;;
16634;SDS011;8431;52.458;9.998;2022-08-11T13:26:14;5.10;;;2.15;;
16634;SDS011;8431;52.458;9.998;2022-08-11T13:28:41;6.47;;;2.15;;
16634;SDS011;8431;52.458;9.998;2022-08-11T13:31:08;2.13;;;1.80;;
16634;SDS011;8431;52.458;9.998;2022-08-11T13:33:35;4.00;;;1.73;;
16634;SDS011;8431;52.458;9.998;2022-08-11T13:36:08;2.28;;;1.85;;
16634;SDS011;8431;52.458;9.998;2022-08-11T13:38:36;5.43;;;2.35;;
16634;SDS011;8431;52.458;9.998;2022-08-11T13:41:05;2.13;;;1.83;;
16634;SDS011;8431;52.458;9.998;2022-08-11T13:43:53;2.33;;;2.10;;
16634;SDS011;8431;52.458;9.998;2022-08-11T13:46:21;2.20;;;2.00;;
16634;SDS011;8431;52.458;9.998;2022-08-11T13:48:49;3.03;;;1.88;;
16634;SDS011;8431;52.458;9.998;2022-08-11T13:51:19;1.80;;;1.70;;
16634;SDS011;8431;52.458;9.998;2022-08-11T13:53:58;2.47;;;1.80;;
16634;SDS011;8431;52.458;9.998;2022-08-11T13:56:27;1.90;;;1.80;;
16634;SDS011;8431;52.458;9.998;2022-08-11T13:58:56;2.10;;;1.90;;
16634;SDS011;8431;52.458;9.998;2022-08-11T14:01:25;3.65;;;2.00;;
16634;SDS011;8431;52.458;9.998;2022-08-11T14:03:56;2.08;;;1.98;;
16634;SDS011;8431;52.458;9.998;2022-08-11T14:06:32;3.75;;;1.90;;
16634;SDS011;8431;52.458;9.998;2022-08-11T14:09:00;3.25;;;1.80;;
16634;SDS011;8431;52.458;9.998;2022-08-11T14:11:29;6.93;;;1.88;;
16634;SDS011;8431;52.458;9.998;2022-08-11T14:14:16;4.70;;;2.28;;
16634;SDS011;8431;52.458;9.998;2022-08-11T14:16:47;1.65;;;1.55;;
16634;SDS011;8431;52.458;9.998;2022-08-11T14:19:18;2.58;;;2.30;;
16634;SDS011;8431;52.458;9.998;2022-08-11T14:21:50;3.05;;;1.98;;
16634;SDS011;8431;52.458;9.998;2022-08-11T14:24:32;2.10;;;2.00;;
16634;SDS011;8431;52.458;9.998;2022-08-11T14:27:01;2.45;;;2.03;;
16634;SDS011;8431;52.458;9.998;2022-08-11T14:29:30;3.90;;;1.88;;
16634;SDS011;8431;52.458;9.998;2022-08-11T14:32:03;3.50;;;2.20;;
16634;SDS011;8431;52.458;9.998;2022-08-11T14:34:32;2.25;;;2.08;;
16634;SDS011;8431;52.458;9.998;2022-08-11T14:37:04;2.47;;;2.00;;
16634;SDS011;8431;52.458;9.998;2022-08-11T14:39:37;5.35;;;2.28;;
16634;SDS011;8431;52.458;9.998;2022-08-11T14:42:08;2.35;;;1.77;;
16634;SDS011;8431;52.458;9.998;2022-08-11T14:44:55;2.63;;;1.88;;
16634;SDS011;8431;52.458;9.998;2022-08-11T14:47:42;2.00;;;1.90;;
16634;SDS011;8431;52.458;9.998;2022-08-11T14:50:14;2.78;;;2.10;;
16634;SDS011;8431;52.458;9.998;2022-08-11T14:52:49;3.28;;;2.00;;
16634;SDS011;8431;52.458;9.998;2022-08-11T14:55:19;3.53;;;2.00;;
16634;SDS011;8431;52.458;9.998;2022-08-11T14:58:06;1.75;;;1.65;;
16634;SDS011;8431;52.458;9.998;2022-08-11T15:00:36;2.17;;;1.98;;
16634;SDS011;8431;52.458;9.998;2022-08-11T15:03:03;2.40;;;2.20;;
16634;SDS011;8431;52.458;9.998;2022-08-11T15:05:37;2.20;;;2.10;;
16634;SDS011;8431;52.458;9.998;2022-08-11T15:08:10;2.47;;;1.63;;
16634;SDS011;8431;52.458;9.998;2022-08-11T15:10:39;2.88;;;2.20;;
16634;SDS011;8431;52.458;9.998;2022-08-11T15:13:07;2.42;;;2.10;;
16634;SDS011;8431;52.458;9.998;2022-08-11T15:15:35;2.40;;;2.20;;
16634;SDS011;8431;52.458;9.998;2022-08-11T15:18:22;3.17;;;2.38;;
16634;SDS011;8431;52.458;9.998;2022-08-11T15:20:50;3.70;;;2.05;;
16634;SDS011;8431;52.458;9.998;2022-08-11T15:23:38;4.10;;;2.20;;
16634;SDS011;8431;52.458;9.998;2022-08-11T15:26:26;2.28;;;2.10;;
16634;SDS011;8431;52.458;9.998;2022-08-11T15:29:16;4.43;;;2.30;;
16634;SDS011;8431;52.458;9.998;2022-08-11T15:32:05;2.83;;;2.28;;
16634;SDS011;8431;52.458;9.998;2022-08-11T15:34:54;4.80;;;1.98;;
16634;SDS011;8431;52.458;9.998;2022-08-11T15:37:42;2.72;;;2.33;;
16634;SDS011;8431;52.458;9.998;2022-08-11T15:40:14;4.15;;;2.30;;
16634;SDS011;8431;52.458;9.998;2022-08-11T15:43:05;4.05;;;2.22;;
16634;SDS011;8431;52.458;9.998;2022-08-11T15:45:53;3.08;;;2.15;;
16634;SDS011;8431;52.458;9.998;2022-08-11T15:48:28;2.05;;;1.92;;
16634;SDS011;8431;52.458;9.998;2022-08-11T15:51:01;2.20;;;2.10;;
16634;SDS011;8431;52.458;9.998;2022-08-11T15:53:36;3.33;;;1.80;;
16634;SDS011;8431;52.458;9.998;2022-08-11T15:56:07;9.30;;;2.08;;
16634;SDS011;8431;52.458;9.998;2022-08-11T15:58:37;3.00;;;2.15;;
16634;SDS011;8431;52.458;9.998;2022-08-11T16:01:26;3.38;;;2.25;;
16634;SDS011;8431;52.458;9.998;2022-08-11T16:04:13;3.92;;;2.13;;
16634;SDS011;8431;52.458;9.998;2022-08-11T16:06:52;2.78;;;2.20;;
16634;SDS011;8431;52.458;9.998;2022-08-11T16:09:26;2.25;;;2.08;;
16634;SDS011;8431;52.458;9.998;2022-08-11T16:11:58;2.35;;;2.15;;
16634;SDS011;8431;52.458;9.998;2022-08-11T16:14:27;2.47;;;2.28;;
16634;SDS011;8431;52.458;9.998;2022-08-11T16:17:15;2.63;;;2.30;;
16634;SDS011;8431;52.458;9.998;2022-08-11T16:19:45;2.67;;;2.58;;
16634;SDS011;8431;52.458;9.998;2022-08-11T16:22:15;2.38;;;2.28;;
16634;SDS011;8431;52.458;9.998;2022-08-11T16:24:57;3.97;;;2.25;;
16634;SDS011;8431;52.458;9.998;2022-08-11T16:27:26;2.90;;;2.30;;
16634;SDS011;8431;52.458;9.998;2022-08-11T16:29:58;3.28;;;2.20;;
16634;SDS011;8431;52.458;9.998;2022-08-11T16:32:26;2.72;;;2.28;;
16634;SDS011;8431;52.458;9.998;2022-08-11T16:34:56;2.63;;;2.47;;
16634;SDS011;8431;52.458;9.998;2022-08-11T16:37:43;2.20;;;2.00;;
16634;SDS011;8431;52.458;9.998;2022-08-11T16:40:44;2.10;;;1.88;;
16634;SDS011;8431;52.458;9.998;2022-08-11T16:43:16;2.15;;;1.73;;
16634;SDS011;8431;52.458;9.998;2022-08-11T16:46:03;10.88;;;2.70;;
16634;SDS011;8431;52.458;9.998;2022-08-11T16:48:58;2.55;;;2.00;;
16634;SDS011;8431;52.458;9.998;2022-08-11T16:51:27;8.43;;;2.50;;
16634;SDS011;8431;52.458;9.998;2022-08-11T16:53:54;2.38;;;2.13;;
16634;SDS011;8431;52.458;9.998;2022-08-11T16:56:22;3.38;;;2.05;;
16634;SDS011;8431;52.458;9.998;2022-08-11T16:58:54;1.95;;;1.88;;
16634;SDS011;8431;52.458;9.998;2022-08-11T17:01:39;1.98;;;1.88;;
16634;SDS011;8431;52.458;9.998;2022-08-11T17:04:08;3.30;;;2.22;;
16634;SDS011;8431;52.458;9.998;2022-08-11T17:06:59;6.47;;;2.30;;
16634;SDS011;8431;52.458;9.998;2022-08-11T17:09:59;2.53;;;2.30;;
16634;SDS011;8431;52.458;9.998;2022-08-11T17:12:48;5.53;;;2.35;;
16634;SDS011;8431;52.458;9.998;2022-08-11T17:15:36;2.40;;;2.20;;
16634;SDS011;8431;52.458;9.998;2022-08-11T17:18:23;2.85;;;1.63;;
16634;SDS011;8431;52.458;9.998;2022-08-11T17:21:08;5.30;;;2.03;;